This is the latest recevied weather packets stored in our database for station/object JH5EWP-13. If no packets are shown the sender has not sent any weather packets the latest 1 day(s).
| Time | Temp. | Humidity | Pressure | Rain* | Wind** | Luminosity | Snow |
|---|---|---|---|---|---|---|---|
| 1836274574 | 30.56° C | 55% | 999.6 hPa | 0 mm | 0 m/s | - | - |
| 1778034826 | 22.22° C | 35% | 1009.3 hPa | 0 mm | 1.79 m/s, 278° | - | - |
| 1778033926 | 22.78° C | 34% | 1009.3 hPa | 0 mm | 2.24 m/s, 283° | - | - |
| 1778033026 | 22.78° C | 33% | 1009.2 hPa | 0 mm | 1.79 m/s, 282° | - | - |
| 1778032126 | 23.33° C | 32% | 1009.6 hPa | 0 mm | 0.89 m/s, 293° | - | - |
| 1778031228 | 23.33° C | 31% | 1009.7 hPa | 0 mm | 0.89 m/s, 313° | - | - |
| 1778030328 | 22.78° C | 33% | 1009.7 hPa | 0 mm | 0.89 m/s, 313° | - | - |
| 1778029428 | 21.67° C | 37% | 1010.1 hPa | 0 mm | 0.89 m/s, 291° | - | - |
| 1778028527 | 21.67° C | 37% | 1009.7 hPa | 0 mm | 0.45 m/s, 306° | - | - |
| 1778027627 | 21.67° C | 37% | 1010.2 hPa | 0 mm | 0.45 m/s, 90° | - | - |
| 1778026726 | 21.11° C | 38% | 1010.1 hPa | 0 mm | 0.45 m/s, 86° | - | - |
| 1778025827 | 20° C | 40% | 1010 hPa | 0 mm | 0.45 m/s, 90° | - | - |
| 1778024927 | 19.44° C | 41% | 1010.3 hPa | 0 mm | 0.89 m/s, 90° | - | - |
| 1778024026 | 18.89° C | 42% | 1010.5 hPa | 0 mm | 0.45 m/s, 118° | - | - |
| 1778023128 | 17.78° C | 45% | 1010.3 hPa | 0 mm | 0.89 m/s, 122° | - | - |
| 1778022525 | 17.22° C | 52% | 1010.5 hPa | 0 mm | 0.89 m/s, 113° | - | - |
| 1778021625 | 17.22° C | 52% | 1010.5 hPa | 0 mm | 0.45 m/s, 119° | - | - |
| 1778020725 | 16.67° C | 55% | 1010.6 hPa | 0 mm | 0.45 m/s, 118° | - | - |
| 1778019826 | 15.56° C | 56% | 1010.5 hPa | 0 mm | 0.45 m/s, 102° | - | - |
| 1778018925 | 15.56° C | 59% | 1010.5 hPa | 0 mm | 0.45 m/s, 99° | - | - |
| 1778018024 | 14.44° C | 60% | 1010.4 hPa | 0 mm | 0.89 m/s, 114° | - | - |
| 1778017124 | 13.89° C | 61% | 1010.2 hPa | 0 mm | 1.34 m/s, 87° | - | - |
| 1778016224 | 13.33° C | 63% | 1010.3 hPa | 0 mm | 0.89 m/s, 88° | - | - |
| 1778015324 | 12.78° C | 64% | 1010.3 hPa | 0 mm | 0.45 m/s, 109° | - | - |
| 1778014426 | 12.22° C | 70% | 1010.3 hPa | 0 mm | 0.45 m/s, 124° | - | - |
* Rain latest hour (hover to see other rain measurements)
** Current wind speed in m/s (hover to see current wind gust speed)